Yarmouth Port, MA (02675)

9:28 PM EDT on May 22, 2017 (GMT -0400)
WA1FSC - Yarmouth Port | | Change Station
Active Advisory: Special Statement

Elev 33 ft 41.71 °N, 70.23 °W | Updated 1 minute ago

Rain
Rain
53.8 °F
Feels Like 53.8 °F
N
3.0
Wind Variable Wind from South

Today
High -- | Low -- °F
--% Chance of Precip.
Yesterday
High -- | Low -- °F
Precip. -- in
Pressure 30.02 in
Visibility 7.0 miles
Clouds Few 500 ft
Mostly Cloudy 1700 ft
Overcast 11000 ft
Dew Point 50 °F
Humidity 88%
Rainfall 0.23 in
Snow Depth Not available.
5:14 AM 8:00 PM
Waning Crescent, 11% visible
SPECI KHYA 230111Z 16007KT 7SM -RA FEW005 BKN017 OVC110 13/12 A3002 RMK AO2 P0001 T01280122
Pressure 30.02 in
Visibility 7.0 miles
Clouds Few 500 ft
Mostly Cloudy 1700 ft
Overcast 11000 ft
Dew Point 50 °F
Humidity 88%
Rainfall 0.23 in
Snow Depth Not available.
5:14 AM 8:00 PM
Waning Crescent, 11% visible
SPECI KHYA 230111Z 16007KT 7SM -RA FEW005 BKN017 OVC110 13/12 A3002 RMK AO2 P0001 T01280122

Get Your Daily Forecast Email!

Thanks for signing up!

Be on the lookout for a verification email in your inbox.

You'll start receiving severe weather alerts in your inbox..

×

10-Day Weather Forecast

Almanac

Astronomy

May. 22, 2017 Rise Set
Actual Time
Civil Twilight
Nautical Twilight
Astronomical Twilight
Moon
Length of Visible Light
Length of Day
Tomorrow will be .
, % of the Moon is Illuminated

Today's Extremes

State Highs State Lows

Community

WunderPhotos

Category 6

Welcome to Category 6. This is the collective home for Weather Underground's featured writeups by Dr. Jeff Masters (right), Bob Henson (left), Chris Burt, and other regular contributors.

Nearby

Air Quality

  Air Quality AQ Index Pollutant
Not available.

Snow Depth

Station Depth Elevation

Earthquake Activity

City Distance Mag. Time & Date
Minimum magnitude displayed is 2.5.

Coastal Water Temperatures

Place Temperature

Stations

Nearby Weather Stations

Station Location Temp. Windchill Dew Point Humidity Wind Precip. Elev Updated Type
                   

Watches & Warnings

Special Statement
Issued: 3:29 PM EDT May. 22, 2017 – National Weather Service

... Heavy rain and localized flooding possible in southeast New
England tonight...

Rainfall amounts up to 2 inches are expected tonight into Tuesday
morning on Cape Cod and the islands, most of which should fall
between 2 am and 8 am Tuesday.

This would cause minor flooding of roads that typically flood in
heavy rain, and could impact the Tuesday morning commute.

Keep in mind there is uncertainty as to where the heavier rain
will fall. While we are more confident it will affect Cape Cod and
the islands, it is possible it ends up farther north from Newport
to Fall River and New Bedford, or it could end up farther south
and stay offshore.

Stay tuned to your local TV and radio stations, NOAA Weather
Radio, or weather.Gov for the latest information.


Jwd